sensor_id;sensor_type;location;lat;lon;timestamp;temperature;humidity
36214;DHT22;37652;50.400;30.628;2022-12-10T04:25:11;1.30;92.00
36214;DHT22;37652;50.400;30.628;2022-12-10T04:27:33;1.00;96.20
36214;DHT22;37652;50.400;30.628;2022-12-10T04:31:36;1.30;94.60
36214;DHT22;37652;50.400;30.628;2022-12-10T04:33:37;1.50;96.50
36214;DHT22;37652;50.400;30.628;2022-12-10T04:35:37;1.10;92.80
36214;DHT22;37652;50.400;30.628;2022-12-10T04:37:38;1.30;93.70
36214;DHT22;37652;50.400;30.628;2022-12-10T04:39:39;1.30;93.80
36214;DHT22;37652;50.400;30.628;2022-12-10T04:41:41;0.70;93.30
36214;DHT22;37652;50.400;30.628;2022-12-10T04:43:42;0.80;96.80
36214;DHT22;37652;50.400;30.628;2022-12-10T04:45:43;1.00;95.40
36214;DHT22;37652;50.400;30.628;2022-12-10T04:47:44;1.00;97.30
36214;DHT22;37652;50.400;30.628;2022-12-10T04:55:47;0.80;96.60
36214;DHT22;37652;50.400;30.628;2022-12-10T05:01:50;0.90;92.90
36214;DHT22;37652;50.400;30.628;2022-12-10T05:03:51;0.80;93.60
36214;DHT22;37652;50.400;30.628;2022-12-10T05:05:52;1.10;93.50
36214;DHT22;37652;50.400;30.628;2022-12-10T05:07:52;0.90;93.50
36214;DHT22;37652;50.400;30.628;2022-12-10T05:11:54;1.20;93.50
36214;DHT22;37652;50.400;30.628;2022-12-10T05:13:55;1.00;92.40
36214;DHT22;37652;50.400;30.628;2022-12-10T05:19:59;1.20;93.90
36214;DHT22;37652;50.400;30.628;2022-12-10T05:21:59;1.10;94.60
36214;DHT22;37652;50.400;30.628;2022-12-10T05:24:19;1.00;94.60
36214;DHT22;37652;50.400;30.628;2022-12-10T05:26:21;1.00;93.50
36214;DHT22;37652;50.400;30.628;2022-12-10T05:28:23;1.00;93.40
36214;DHT22;37652;50.400;30.628;2022-12-10T05:30:23;0.90;93.40
36214;DHT22;37652;50.400;30.628;2022-12-10T05:32:24;1.10;93.50
36214;DHT22;37652;50.400;30.628;2022-12-10T05:34:24;1.10;93.40
36214;DHT22;37652;50.400;30.628;2022-12-10T05:36:28;1.10;93.40
36214;DHT22;37652;50.400;30.628;2022-12-10T05:38:30;1.20;93.50
36214;DHT22;37652;50.400;30.628;2022-12-10T05:40:35;1.10;93.30
36214;DHT22;37652;50.400;30.628;2022-12-10T05:42:35;1.30;93.40
36214;DHT22;37652;50.400;30.628;2022-12-10T05:44:36;0.90;93.20
36214;DHT22;37652;50.400;30.628;2022-12-10T05:46:37;1.20;93.30
36214;DHT22;37652;50.400;30.628;2022-12-10T05:48:38;0.70;93.20
36214;DHT22;37652;50.400;30.628;2022-12-10T05:50:39;1.00;93.30
36214;DHT22;37652;50.400;30.628;2022-12-10T05:52:40;1.00;93.30
36214;DHT22;37652;50.400;30.628;2022-12-10T05:54:40;1.60;93.40
36214;DHT22;37652;50.400;30.628;2022-12-10T05:56:41;1.10;93.30
36214;DHT22;37652;50.400;30.628;2022-12-10T05:58:43;1.10;93.40
36214;DHT22;37652;50.400;30.628;2022-12-10T06:00:44;1.20;93.30
36214;DHT22;37652;50.400;30.628;2022-12-10T06:02:45;1.10;92.40
36214;DHT22;37652;50.400;30.628;2022-12-10T06:04:45;1.10;92.20
36214;DHT22;37652;50.400;30.628;2022-12-10T06:06:46;1.20;93.40
36214;DHT22;37652;50.400;30.628;2022-12-10T06:08:47;1.10;92.40
36214;DHT22;37652;50.400;30.628;2022-12-10T06:10:48;1.70;92.40
36214;DHT22;37652;50.400;30.628;2022-12-10T06:12:49;1.20;93.40
36214;DHT22;37652;50.400;30.628;2022-12-10T06:14:49;1.10;93.30
36214;DHT22;37652;50.400;30.628;2022-12-10T06:16:50;1.30;93.50
36214;DHT22;37652;50.400;30.628;2022-12-10T06:18:51;1.20;92.60
36214;DHT22;37652;50.400;30.628;2022-12-10T06:20:51;1.10;93.40
36214;DHT22;37652;50.400;30.628;2022-12-10T06:22:52;1.10;93.30
36214;DHT22;37652;50.400;30.628;2022-12-10T06:24:53;0.70;93.10
36214;DHT22;37652;50.400;30.628;2022-12-10T06:26:53;1.20;93.30
36214;DHT22;37652;50.400;30.628;2022-12-10T06:28:54;0.80;92.40
36214;DHT22;37652;50.400;30.628;2022-12-10T06:30:58;1.20;93.40
36214;DHT22;37652;50.400;30.628;2022-12-10T06:32:59;1.20;93.30
36214;DHT22;37652;50.400;30.628;2022-12-10T06:34:59;1.20;93.30
36214;DHT22;37652;50.400;30.628;2022-12-10T06:37:00;1.30;93.30
36214;DHT22;37652;50.400;30.628;2022-12-10T06:39:01;1.00;93.20
36214;DHT22;37652;50.400;30.628;2022-12-10T06:41:07;1.10;93.40
36214;DHT22;37652;50.400;30.628;2022-12-10T06:43:08;1.30;93.30
36214;DHT22;37652;50.400;30.628;2022-12-10T06:45:10;1.20;93.30
36214;DHT22;37652;50.400;30.628;2022-12-10T06:47:11;1.20;93.20
36214;DHT22;37652;50.400;30.628;2022-12-10T06:51:13;1.30;93.30
36214;DHT22;37652;50.400;30.628;2022-12-10T06:53:14;1.30;92.60
36214;DHT22;37652;50.400;30.628;2022-12-10T06:59:17;1.30;96.50
36214;DHT22;37652;50.400;30.628;2022-12-10T07:01:20;1.30;91.90
36214;DHT22;37652;50.400;30.628;2022-12-10T07:03:21;1.30;96.10
36214;DHT22;37652;50.400;30.628;2022-12-10T07:05:22;1.40;96.40
36214;DHT22;37652;50.400;30.628;2022-12-10T07:07:23;1.20;94.10
36214;DHT22;37652;50.400;30.628;2022-12-10T07:09:23;1.30;93.20
36214;DHT22;37652;50.400;30.628;2022-12-10T07:11:25;1.20;93.00
36214;DHT22;37652;50.400;30.628;2022-12-10T07:13:25;1.30;92.10
36214;DHT22;37652;50.400;30.628;2022-12-10T07:15:26;1.20;93.10
36214;DHT22;37652;50.400;30.628;2022-12-10T07:17:28;1.20;93.10
36214;DHT22;37652;50.400;30.628;2022-12-10T07:19:29;1.30;93.10
36214;DHT22;37652;50.400;30.628;2022-12-10T07:21:32;1.70;93.20
36214;DHT22;37652;50.400;30.628;2022-12-10T07:23:33;1.30;93.10
36214;DHT22;37652;50.400;30.628;2022-12-10T07:25:33;1.40;93.10
36214;DHT22;37652;50.400;30.628;2022-12-10T07:27:34;1.40;93.10
36214;DHT22;37652;50.400;30.628;2022-12-10T07:29:35;1.40;93.20
36214;DHT22;37652;50.400;30.628;2022-12-10T07:31:36;1.60;93.20
36214;DHT22;37652;50.400;30.628;2022-12-10T07:33:37;1.30;93.00
36214;DHT22;37652;50.400;30.628;2022-12-10T07:35:39;1.60;93.20
36214;DHT22;37652;50.400;30.628;2022-12-10T07:37:40;1.40;93.10
36214;DHT22;37652;50.400;30.628;2022-12-10T07:39:40;1.50;93.10
36214;DHT22;37652;50.400;30.628;2022-12-10T07:41:46;1.40;92.90
36214;DHT22;37652;50.400;30.628;2022-12-10T07:45:48;1.50;93.10
36214;DHT22;37652;50.400;30.628;2022-12-10T07:47:49;1.80;93.30
36214;DHT22;37652;50.400;30.628;2022-12-10T07:49:50;1.50;93.30
36214;DHT22;37652;50.400;30.628;2022-12-10T07:51:51;1.10;95.90
36214;DHT22;37652;50.400;30.628;2022-12-10T07:53:52;1.40;96.20
36214;DHT22;37652;50.400;30.628;2022-12-10T07:55:53;1.70;95.40
36214;DHT22;37652;50.400;30.628;2022-12-10T07:57:54;1.60;94.00
36214;DHT22;37652;50.400;30.628;2022-12-10T07:59:55;1.70;94.90
36214;DHT22;37652;50.400;30.628;2022-12-10T08:06:06;1.60;92.90
36214;DHT22;37652;50.400;30.628;2022-12-10T08:08:07;1.60;92.80
36214;DHT22;37652;50.400;30.628;2022-12-10T08:10:08;1.60;92.90
36214;DHT22;37652;50.400;30.628;2022-12-10T08:12:08;1.80;93.20
36214;DHT22;37652;50.400;30.628;2022-12-10T08:14:09;1.60;92.80
36214;DHT22;37652;50.400;30.628;2022-12-10T08:16:15;1.40;91.60
36214;DHT22;37652;50.400;30.628;2022-12-10T08:18:16;1.70;92.90
36214;DHT22;37652;50.400;30.628;2022-12-10T08:20:17;1.50;92.80
36214;DHT22;37652;50.400;30.628;2022-12-10T08:22:17;1.60;92.80
36214;DHT22;37652;50.400;30.628;2022-12-10T08:24:18;1.60;92.80
36214;DHT22;37652;50.400;30.628;2022-12-10T08:26:21;1.70;93.00
36214;DHT22;37652;50.400;30.628;2022-12-10T08:28:22;1.80;92.90
36214;DHT22;37652;50.400;30.628;2022-12-10T08:30:23;1.90;92.90
36214;DHT22;37652;50.400;30.628;2022-12-10T08:32:24;1.80;92.70
36214;DHT22;37652;50.400;30.628;2022-12-10T08:34:24;1.70;92.50
36214;DHT22;37652;50.400;30.628;2022-12-10T08:36:25;1.80;92.90
36214;DHT22;37652;50.400;30.628;2022-12-10T08:38:26;1.80;92.90
36214;DHT22;37652;50.400;30.628;2022-12-10T08:40:27;1.30;92.60
36214;DHT22;37652;50.400;30.628;2022-12-10T08:42:28;1.60;92.80
36214;DHT22;37652;50.400;30.628;2022-12-10T08:44:28;1.80;92.80
36214;DHT22;37652;50.400;30.628;2022-12-10T08:46:29;1.70;92.70
36214;DHT22;37652;50.400;30.628;2022-12-10T08:48:31;1.80;92.80
36214;DHT22;37652;50.400;30.628;2022-12-10T08:50:32;1.80;92.80
36214;DHT22;37652;50.400;30.628;2022-12-10T08:52:33;1.70;92.70
36214;DHT22;37652;50.400;30.628;2022-12-10T08:54:33;1.90;92.70
36214;DHT22;37652;50.400;30.628;2022-12-10T08:56:34;1.60;92.70
36214;DHT22;37652;50.400;30.628;2022-12-10T08:58:36;1.90;92.70
36214;DHT22;37652;50.400;30.628;2022-12-10T09:00:37;1.80;92.80
36214;DHT22;37652;50.400;30.628;2022-12-10T09:02:37;1.90;92.80
36214;DHT22;37652;50.400;30.628;2022-12-10T09:04:38;1.90;92.90
36214;DHT22;37652;50.400;30.628;2022-12-10T09:06:39;1.80;92.80
36214;DHT22;37652;50.400;30.628;2022-12-10T09:08:40;2.00;93.00
36214;DHT22;37652;50.400;30.628;2022-12-10T09:10:41;1.90;91.70
36214;DHT22;37652;50.400;30.628;2022-12-10T09:12:42;2.10;92.50
36214;DHT22;37652;50.400;30.628;2022-12-10T09:14:42;2.00;92.90
36214;DHT22;37652;50.400;30.628;2022-12-10T09:16:43;2.00;92.90
36214;DHT22;37652;50.400;30.628;2022-12-10T09:18:44;2.00;92.90
36214;DHT22;37652;50.400;30.628;2022-12-10T09:20:45;2.80;93.10
36214;DHT22;37652;50.400;30.628;2022-12-10T09:22:45;2.10;93.00
36214;DHT22;37652;50.400;30.628;2022-12-10T09:24:46;2.00;93.10
36214;DHT22;37652;50.400;30.628;2022-12-10T09:26:47;1.90;92.70
36214;DHT22;37652;50.400;30.628;2022-12-10T09:28:47;2.20;93.10
36214;DHT22;37652;50.400;30.628;2022-12-10T09:30:56;2.10;92.90
36214;DHT22;37652;50.400;30.628;2022-12-10T09:32:57;2.10;92.90
36214;DHT22;37652;50.400;30.628;2022-12-10T09:34:57;2.30;92.00
36214;DHT22;37652;50.400;30.628;2022-12-10T09:36:58;2.10;93.10
36214;DHT22;37652;50.400;30.628;2022-12-10T09:38:59;2.20;92.30
36214;DHT22;37652;50.400;30.628;2022-12-10T09:41:02;2.20;93.80
36214;DHT22;37652;50.400;30.628;2022-12-10T09:50:23;2.50;92.90
36214;DHT22;37652;50.400;30.628;2022-12-10T09:52:33;2.20;92.90
36214;DHT22;37652;50.400;30.628;2022-12-10T09:54:47;2.70;92.80
36214;DHT22;37652;50.400;30.628;2022-12-10T09:56:50;2.30;91.70
36214;DHT22;37652;50.400;30.628;2022-12-10T09:58:52;2.30;92.80
36214;DHT22;37652;50.400;30.628;2022-12-10T10:00:59;2.30;92.80
36214;DHT22;37652;50.400;30.628;2022-12-10T13:20:24;2.80;92.40
36214;DHT22;37652;50.400;30.628;2022-12-10T13:27:10;3.60;92.30
36214;DHT22;37652;50.400;30.628;2022-12-10T13:29:26;3.00;94.90
36214;DHT22;37652;50.400;30.628;2022-12-10T13:35:59;3.70;94.00
36214;DHT22;37652;50.400;30.628;2022-12-10T13:38:23;3.30;91.80
36214;DHT22;37652;50.400;30.628;2022-12-10T13:42:59;3.30;91.90
36214;DHT22;37652;50.400;30.628;2022-12-10T13:49:29;3.00;94.90
36214;DHT22;37652;50.400;30.628;2022-12-10T13:51:42;3.30;91.90
36214;DHT22;37652;50.400;30.628;2022-12-10T13:56:14;3.60;92.90
36214;DHT22;37652;50.400;30.628;2022-12-10T13:58:32;3.50;92.60
36214;DHT22;37652;50.400;30.628;2022-12-10T14:07:47;3.30;92.60
36214;DHT22;37652;50.400;30.628;2022-12-10T14:09:53;3.30;92.60
36214;DHT22;37652;50.400;30.628;2022-12-10T14:11:59;3.40;92.90
36214;DHT22;37652;50.400;30.628;2022-12-10T14:14:01;3.00;92.80
36214;DHT22;37652;50.400;30.628;2022-12-10T14:16:02;3.30;92.30
36214;DHT22;37652;50.400;30.628;2022-12-10T14:18:12;3.40;92.30
36214;DHT22;37652;50.400;30.628;2022-12-10T14:20:17;3.40;92.40
36214;DHT22;37652;50.400;30.628;2022-12-10T14:24:37;3.40;92.40
36214;DHT22;37652;50.400;30.628;2022-12-10T14:28:41;3.40;92.20
36214;DHT22;37652;50.400;30.628;2022-12-10T14:30:44;3.40;92.20
36214;DHT22;37652;50.400;30.628;2022-12-10T14:32:47;3.40;95.40
36214;DHT22;37652;50.400;30.628;2022-12-10T14:34:55;3.40;92.20
36214;DHT22;37652;50.400;30.628;2022-12-10T14:37:00;3.40;92.20
36214;DHT22;37652;50.400;30.628;2022-12-10T14:39:03;3.40;93.80
36214;DHT22;37652;50.400;30.628;2022-12-10T14:41:05;3.50;96.60
36214;DHT22;37652;50.400;30.628;2022-12-10T14:43:13;3.50;92.20
36214;DHT22;37652;50.400;30.628;2022-12-10T14:45:15;3.60;96.10
36214;DHT22;37652;50.400;30.628;2022-12-10T14:47:18;3.50;92.20
36214;DHT22;37652;50.400;30.628;2022-12-10T14:49:25;3.50;92.20
36214;DHT22;37652;50.400;30.628;2022-12-10T14:51:32;3.80;93.00
36214;DHT22;37652;50.400;30.628;2022-12-10T14:53:33;3.60;95.10
36214;DHT22;37652;50.400;30.628;2022-12-10T14:55:35;3.50;92.10
36214;DHT22;37652;50.400;30.628;2022-12-10T14:57:42;3.50;92.10
36214;DHT22;37652;50.400;30.628;2022-12-10T15:02:32;3.30;94.40
36214;DHT22;37652;50.400;30.628;2022-12-10T15:04:43;4.10;93.20
36214;DHT22;37652;50.400;30.628;2022-12-10T15:06:45;3.40;92.10
36214;DHT22;37652;50.400;30.628;2022-12-10T15:08:46;3.40;92.30
36214;DHT22;37652;50.400;30.628;2022-12-10T15:10:51;3.50;92.40
36214;DHT22;37652;50.400;30.628;2022-12-10T15:12:53;3.50;92.40
36214;DHT22;37652;50.400;30.628;2022-12-10T15:14:55;3.40;92.50
36214;DHT22;37652;50.400;30.628;2022-12-10T15:16:57;3.50;92.40
36214;DHT22;37652;50.400;30.628;2022-12-10T15:21:28;3.60;93.30
36214;DHT22;37652;50.400;30.628;2022-12-10T15:25:30;3.10;92.30
36214;DHT22;37652;50.400;30.628;2022-12-10T15:27:30;3.50;92.30
36214;DHT22;37652;50.400;30.628;2022-12-10T15:29:33;3.50;92.70
36214;DHT22;37652;50.400;30.628;2022-12-10T15:33:48;3.60;92.20
36214;DHT22;37652;50.400;30.628;2022-12-10T15:35:49;3.60;92.40
36214;DHT22;37652;50.400;30.628;2022-12-10T15:37:52;3.60;92.40
36214;DHT22;37652;50.400;30.628;2022-12-10T15:39:58;3.60;92.40
36214;DHT22;37652;50.400;30.628;2022-12-10T15:42:08;3.60;92.40
36214;DHT22;37652;50.400;30.628;2022-12-10T15:46:29;3.60;92.40
36214;DHT22;37652;50.400;30.628;2022-12-10T15:48:30;3.60;92.40
36214;DHT22;37652;50.400;30.628;2022-12-10T15:50:31;3.60;92.40
36214;DHT22;37652;50.400;30.628;2022-12-10T15:52:32;3.60;92.40
36214;DHT22;37652;50.400;30.628;2022-12-10T15:54:38;3.60;92.20
36214;DHT22;37652;50.400;30.628;2022-12-10T15:56:39;3.40;92.60
36214;DHT22;37652;50.400;30.628;2022-12-10T15:58:41;3.60;92.40
36214;DHT22;37652;50.400;30.628;2022-12-10T16:00:42;3.60;92.40
36214;DHT22;37652;50.400;30.628;2022-12-10T16:04:51;3.70;93.40
36214;DHT22;37652;50.400;30.628;2022-12-10T16:06:51;3.60;92.40
36214;DHT22;37652;50.400;30.628;2022-12-10T16:08:52;3.70;92.20
36214;DHT22;37652;50.400;30.628;2022-12-10T16:10:56;3.80;93.40
36214;DHT22;37652;50.400;30.628;2022-12-10T16:13:17;3.60;92.40
36214;DHT22;37652;50.400;30.628;2022-12-10T16:15:22;3.70;92.40
36214;DHT22;37652;50.400;30.628;2022-12-10T16:17:29;3.60;92.40
36214;DHT22;37652;50.400;30.628;2022-12-10T16:19:29;3.60;92.40
36214;DHT22;37652;50.400;30.628;2022-12-10T16:21:30;3.60;92.20
36214;DHT22;37652;50.400;30.628;2022-12-10T16:23:31;4.30;93.60
36214;DHT22;37652;50.400;30.628;2022-12-10T16:25:32;3.50;93.20
36214;DHT22;37652;50.400;30.628;2022-12-10T16:27:33;4.80;92.70
36214;DHT22;37652;50.400;30.628;2022-12-10T16:29:37;3.70;92.40
36214;DHT22;37652;50.400;30.628;2022-12-10T16:31:38;3.70;92.40
36214;DHT22;37652;50.400;30.628;2022-12-10T16:33:38;3.70;92.40
36214;DHT22;37652;50.400;30.628;2022-12-10T16:35:39;3.60;92.30
36214;DHT22;37652;50.400;30.628;2022-12-10T16:37:44;3.60;93.80
36214;DHT22;37652;50.400;30.628;2022-12-10T16:39:45;3.70;95.10
36214;DHT22;37652;50.400;30.628;2022-12-10T16:41:51;3.50;95.00
36214;DHT22;37652;50.400;30.628;2022-12-10T16:43:53;3.60;92.30
36214;DHT22;37652;50.400;30.628;2022-12-10T16:47:57;3.70;92.70
36214;DHT22;37652;50.400;30.628;2022-12-10T16:49:58;3.60;92.40
36214;DHT22;37652;50.400;30.628;2022-12-10T16:51:59;3.80;93.00
36214;DHT22;37652;50.400;30.628;2022-12-10T17:00:04;3.40;93.50
36214;DHT22;37652;50.400;30.628;2022-12-10T17:02:15;3.60;92.30
36214;DHT22;37652;50.400;30.628;2022-12-10T17:04:16;3.60;92.30
36214;DHT22;37652;50.400;30.628;2022-12-10T17:06:17;3.80;92.90
36214;DHT22;37652;50.400;30.628;2022-12-10T17:08:19;3.50;92.70
36214;DHT22;37652;50.400;30.628;2022-12-10T17:10:19;3.60;92.30
36214;DHT22;37652;50.400;30.628;2022-12-10T17:12:43;3.80;93.00
36214;DHT22;37652;50.400;30.628;2022-12-10T17:14:44;3.50;95.20
36214;DHT22;37652;50.400;30.628;2022-12-10T17:16:46;4.10;95.60
36214;DHT22;37652;50.400;30.628;2022-12-10T17:22:49;4.00;93.20
36214;DHT22;37652;50.400;30.628;2022-12-10T17:24:50;3.60;92.90
36214;DHT22;37652;50.400;30.628;2022-12-10T17:26:51;3.60;92.20
36214;DHT22;37652;50.400;30.628;2022-12-10T17:29:00;3.70;92.90
36214;DHT22;37652;50.400;30.628;2022-12-10T17:31:01;3.70;92.40
36214;DHT22;37652;50.400;30.628;2022-12-10T17:33:02;3.70;92.40
36214;DHT22;37652;50.400;30.628;2022-12-10T17:35:03;3.80;92.40
36214;DHT22;37652;50.400;30.628;2022-12-10T17:37:12;3.70;92.30
36214;DHT22;37652;50.400;30.628;2022-12-10T17:39:17;3.80;92.30
36214;DHT22;37652;50.400;30.628;2022-12-10T17:41:18;3.80;92.30
36214;DHT22;37652;50.400;30.628;2022-12-10T17:43:18;3.70;92.60
36214;DHT22;37652;50.400;30.628;2022-12-10T17:45:19;3.80;92.30
36214;DHT22;37652;50.400;30.628;2022-12-10T17:47:24;3.80;92.30
36214;DHT22;37652;50.400;30.628;2022-12-10T17:49:25;3.80;92.30
36214;DHT22;37652;50.400;30.628;2022-12-10T17:51:25;3.90;92.60
36214;DHT22;37652;50.400;30.628;2022-12-10T17:53:27;3.70;92.60
36214;DHT22;37652;50.400;30.628;2022-12-10T17:55:29;3.70;92.20
36214;DHT22;37652;50.400;30.628;2022-12-10T17:57:30;3.70;92.20
36214;DHT22;37652;50.400;30.628;2022-12-10T17:59:31;3.60;92.60
36214;DHT22;37652;50.400;30.628;2022-12-10T18:01:32;3.70;92.20
36214;DHT22;37652;50.400;30.628;2022-12-10T18:03:34;3.70;92.20
36214;DHT22;37652;50.400;30.628;2022-12-10T18:05:35;3.80;93.00
36214;DHT22;37652;50.400;30.628;2022-12-10T18:07:36;3.60;92.20
36214;DHT22;37652;50.400;30.628;2022-12-10T18:09:39;3.60;92.20
36214;DHT22;37652;50.400;30.628;2022-12-10T18:11:40;3.70;92.30
36214;DHT22;37652;50.400;30.628;2022-12-10T18:13:43;3.60;92.60
36214;DHT22;37652;50.400;30.628;2022-12-10T18:17:46;3.70;92.10
36214;DHT22;37652;50.400;30.628;2022-12-10T18:19:46;3.70;92.90
36214;DHT22;37652;50.400;30.628;2022-12-10T18:21:47;3.60;92.30
36214;DHT22;37652;50.400;30.628;2022-12-10T18:23:48;3.70;92.30
36214;DHT22;37652;50.400;30.628;2022-12-10T18:25:52;3.70;92.30
36214;DHT22;37652;50.400;30.628;2022-12-10T18:27:55;3.70;92.30
36214;DHT22;37652;50.400;30.628;2022-12-10T18:29:57;3.70;92.30
36214;DHT22;37652;50.400;30.628;2022-12-10T18:31:57;3.70;92.20
36214;DHT22;37652;50.400;30.628;2022-12-10T18:34:04;3.70;92.30
36214;DHT22;37652;50.400;30.628;2022-12-10T18:36:05;4.10;92.80
36214;DHT22;37652;50.400;30.628;2022-12-10T18:38:05;3.80;92.90
36214;DHT22;37652;50.400;30.628;2022-12-10T18:40:10;3.80;92.30
36214;DHT22;37652;50.400;30.628;2022-12-10T18:42:12;3.80;92.30
36214;DHT22;37652;50.400;30.628;2022-12-10T18:44:14;3.80;92.30
36214;DHT22;37652;50.400;30.628;2022-12-10T18:46:20;4.20;93.10
36214;DHT22;37652;50.400;30.628;2022-12-10T18:48:21;3.70;92.50
36214;DHT22;37652;50.400;30.628;2022-12-10T18:50:25;3.80;92.30
36214;DHT22;37652;50.400;30.628;2022-12-10T18:52:26;4.30;95.70
36214;DHT22;37652;50.400;30.628;2022-12-10T18:54:27;3.80;92.20
36214;DHT22;37652;50.400;30.628;2022-12-10T18:56:29;3.70;92.90
36214;DHT22;37652;50.400;30.628;2022-12-10T21:31:41;4.30;94.40
36214;DHT22;37652;50.400;30.628;2022-12-10T21:33:42;3.70;94.90
36214;DHT22;37652;50.400;30.628;2022-12-10T21:35:43;3.80;92.80
36214;DHT22;37652;50.400;30.628;2022-12-10T21:37:43;3.30;93.30
36214;DHT22;37652;50.400;30.628;2022-12-10T21:39:44;3.50;93.40
36214;DHT22;37652;50.400;30.628;2022-12-10T21:41:45;3.60;93.40
36214;DHT22;37652;50.400;30.628;2022-12-10T21:44:04;3.90;93.60
36214;DHT22;37652;50.400;30.628;2022-12-10T21:46:07;3.80;92.20
36214;DHT22;37652;50.400;30.628;2022-12-10T21:48:09;3.80;92.40
36214;DHT22;37652;50.400;30.628;2022-12-10T21:50:11;3.80;92.30
36214;DHT22;37652;50.400;30.628;2022-12-10T21:52:12;4.00;92.60
36214;DHT22;37652;50.400;30.628;2022-12-10T21:54:12;3.70;92.30
36214;DHT22;37652;50.400;30.628;2022-12-10T21:56:13;3.70;92.30
36214;DHT22;37652;50.400;30.628;2022-12-10T21:58:14;3.80;92.80
36214;DHT22;37652;50.400;30.628;2022-12-10T22:00:17;3.70;92.30
36214;DHT22;37652;50.400;30.628;2022-12-10T22:02:17;3.70;92.30
36214;DHT22;37652;50.400;30.628;2022-12-10T22:04:18;3.70;92.30
36214;DHT22;37652;50.400;30.628;2022-12-10T22:06:21;3.70;92.30
36214;DHT22;37652;50.400;30.628;2022-12-10T22:08:22;3.70;92.30
36214;DHT22;37652;50.400;30.628;2022-12-10T22:12:24;3.70;92.10
36214;DHT22;37652;50.400;30.628;2022-12-10T22:14:25;3.70;92.40
36214;DHT22;37652;50.400;30.628;2022-12-10T22:16:25;3.80;92.40
36214;DHT22;37652;50.400;30.628;2022-12-10T22:18:26;3.70;92.30
36214;DHT22;37652;50.400;30.628;2022-12-10T22:20:26;3.70;92.40
36214;DHT22;37652;50.400;30.628;2022-12-10T22:22:27;3.80;95.50
36214;DHT22;37652;50.400;30.628;2022-12-10T22:24:29;3.70;92.20
36214;DHT22;37652;50.400;30.628;2022-12-10T22:26:30;3.80;95.40
36214;DHT22;37652;50.400;30.628;2022-12-10T22:28:30;3.70;95.10
36214;DHT22;37652;50.400;30.628;2022-12-10T22:30:31;3.90;94.60
36214;DHT22;37652;50.400;30.628;2022-12-10T22:32:32;3.90;92.50
36214;DHT22;37652;50.400;30.628;2022-12-10T22:34:32;3.90;92.40
36214;DHT22;37652;50.400;30.628;2022-12-10T22:38:34;3.80;94.30
36214;DHT22;37652;50.400;30.628;2022-12-10T22:42:39;4.00;95.10
36214;DHT22;37652;50.400;30.628;2022-12-10T22:46:41;3.90;92.20
36214;DHT22;37652;50.400;30.628;2022-12-10T22:48:41;3.90;92.40
36214;DHT22;37652;50.400;30.628;2022-12-10T22:50:42;4.00;92.50
36214;DHT22;37652;50.400;30.628;2022-12-10T22:52:43;3.80;94.50
36214;DHT22;37652;50.400;30.628;2022-12-10T22:54:43;3.90;94.80
36214;DHT22;37652;50.400;30.628;2022-12-10T22:56:44;4.00;92.40
36214;DHT22;37652;50.400;30.628;2022-12-10T22:58:45;4.00;92.40
36214;DHT22;37652;50.400;30.628;2022-12-10T23:02:47;3.90;94.50
36214;DHT22;37652;50.400;30.628;2022-12-10T23:04:50;4.70;94.90
36214;DHT22;37652;50.400;30.628;2022-12-10T23:06:51;4.10;94.70
36214;DHT22;37652;50.400;30.628;2022-12-10T23:08:52;4.30;94.80
36214;DHT22;37652;50.400;30.628;2022-12-10T23:10:52;3.90;92.20
36214;DHT22;37652;50.400;30.628;2022-12-10T23:12:53;3.90;92.20
36214;DHT22;37652;50.400;30.628;2022-12-10T23:15:06;3.70;92.40
36214;DHT22;37652;50.400;30.628;2022-12-10T23:17:07;3.90;92.20
36214;DHT22;37652;50.400;30.628;2022-12-10T23:19:07;3.90;92.30
36214;DHT22;37652;50.400;30.628;2022-12-10T23:21:23;4.00;92.20
36214;DHT22;37652;50.400;30.628;2022-12-10T23:23:25;3.90;92.30
36214;DHT22;37652;50.400;30.628;2022-12-10T23:27:27;3.70;93.30
36214;DHT22;37652;50.400;30.628;2022-12-10T23:29:27;4.00;94.30
36214;DHT22;37652;50.400;30.628;2022-12-10T23:31:28;4.00;94.90
36214;DHT22;37652;50.400;30.628;2022-12-10T23:33:28;4.00;93.60
36214;DHT22;37652;50.400;30.628;2022-12-10T23:35:29;3.80;94.70
36214;DHT22;37652;50.400;30.628;2022-12-10T23:37:30;3.90;92.00
36214;DHT22;37652;50.400;30.628;2022-12-10T23:39:31;3.90;92.20
36214;DHT22;37652;50.400;30.628;2022-12-10T23:41:31;3.90;92.30
36214;DHT22;37652;50.400;30.628;2022-12-10T23:43:32;3.80;92.10
36214;DHT22;37652;50.400;30.628;2022-12-10T23:45:33;3.90;92.20
36214;DHT22;37652;50.400;30.628;2022-12-10T23:47:34;3.90;92.20
36214;DHT22;37652;50.400;30.628;2022-12-10T23:49:34;3.90;92.30
36214;DHT22;37652;50.400;30.628;2022-12-10T23:51:35;4.00;92.40
36214;DHT22;37652;50.400;30.628;2022-12-10T23:53:36;4.00;92.30
36214;DHT22;37652;50.400;30.628;2022-12-10T23:55:43;4.00;92.30
36214;DHT22;37652;50.400;30.628;2022-12-10T23:57:44;3.90;92.30
36214;DHT22;37652;50.400;30.628;2022-12-10T23:59:44;3.90;92.30
